sensor_id;sensor_type;location;lat;lon;timestamp;P1;durP1;ratioP1;P2;durP2;ratioP2
62554;SDS011;48610;52.144;8.624;2023-06-14T00:00:28;6.40;;;3.13;;
62554;SDS011;48610;52.144;8.624;2023-06-14T00:03:29;7.57;;;3.53;;
62554;SDS011;48610;52.144;8.624;2023-06-14T00:06:29;5.80;;;3.13;;
62554;SDS011;48610;52.144;8.624;2023-06-14T00:09:30;4.95;;;3.30;;
62554;SDS011;48610;52.144;8.624;2023-06-14T00:12:31;14.18;;;3.67;;
62554;SDS011;48610;52.144;8.624;2023-06-14T00:15:31;5.70;;;3.20;;
62554;SDS011;48610;52.144;8.624;2023-06-14T00:18:32;7.32;;;3.22;;
62554;SDS011;48610;52.144;8.624;2023-06-14T00:21:33;6.50;;;3.75;;
62554;SDS011;48610;52.144;8.624;2023-06-14T00:24:34;7.75;;;3.35;;
62554;SDS011;48610;52.144;8.624;2023-06-14T00:27:35;10.25;;;3.58;;
62554;SDS011;48610;52.144;8.624;2023-06-14T00:30:35;7.22;;;3.35;;
62554;SDS011;48610;52.144;8.624;2023-06-14T00:33:36;5.78;;;3.50;;
62554;SDS011;48610;52.144;8.624;2023-06-14T00:36:36;9.20;;;3.45;;
62554;SDS011;48610;52.144;8.624;2023-06-14T00:39:37;4.80;;;3.25;;
62554;SDS011;48610;52.144;8.624;2023-06-14T00:42:37;5.97;;;3.72;;
62554;SDS011;48610;52.144;8.624;2023-06-14T00:45:38;5.30;;;3.35;;
62554;SDS011;48610;52.144;8.624;2023-06-14T00:48:39;7.22;;;3.65;;
62554;SDS011;48610;52.144;8.624;2023-06-14T00:51:41;6.22;;;3.28;;
62554;SDS011;48610;52.144;8.624;2023-06-14T00:54:42;11.10;;;3.00;;
62554;SDS011;48610;52.144;8.624;2023-06-14T00:57:44;7.32;;;3.42;;
62554;SDS011;48610;52.144;8.624;2023-06-14T01:00:45;3.60;;;2.85;;
62554;SDS011;48610;52.144;8.624;2023-06-14T01:03:46;4.45;;;3.00;;
62554;SDS011;48610;52.144;8.624;2023-06-14T01:06:50;9.20;;;3.47;;
62554;SDS011;48610;52.144;8.624;2023-06-14T01:10:21;16.85;;;3.50;;
62554;SDS011;48610;52.144;8.624;2023-06-14T01:13:39;7.10;;;3.70;;
62554;SDS011;48610;52.144;8.624;2023-06-14T01:16:43;10.25;;;3.40;;
62554;SDS011;48610;52.144;8.624;2023-06-14T01:19:45;12.88;;;3.72;;
62554;SDS011;48610;52.144;8.624;2023-06-14T01:22:52;7.50;;;3.35;;
62554;SDS011;48610;52.144;8.624;2023-06-14T01:25:53;6.18;;;3.60;;
62554;SDS011;48610;52.144;8.624;2023-06-14T01:28:55;5.97;;;3.25;;
62554;SDS011;48610;52.144;8.624;2023-06-14T01:32:01;5.45;;;3.60;;
62554;SDS011;48610;52.144;8.624;2023-06-14T01:35:03;12.63;;;3.88;;
62554;SDS011;48610;52.144;8.624;2023-06-14T01:38:04;5.90;;;3.20;;
62554;SDS011;48610;52.144;8.624;2023-06-14T01:41:06;9.32;;;3.25;;
62554;SDS011;48610;52.144;8.624;2023-06-14T01:44:07;7.45;;;3.42;;
62554;SDS011;48610;52.144;8.624;2023-06-14T01:47:08;5.80;;;3.65;;
62554;SDS011;48610;52.144;8.624;2023-06-14T01:50:09;4.65;;;3.38;;
62554;SDS011;48610;52.144;8.624;2023-06-14T01:53:10;5.57;;;3.13;;
62554;SDS011;48610;52.144;8.624;2023-06-14T01:56:11;5.35;;;3.30;;
62554;SDS011;48610;52.144;8.624;2023-06-14T01:59:11;8.85;;;3.25;;
62554;SDS011;48610;52.144;8.624;2023-06-14T02:02:12;5.88;;;3.40;;
62554;SDS011;48610;52.144;8.624;2023-06-14T02:05:13;6.38;;;3.40;;
62554;SDS011;48610;52.144;8.624;2023-06-14T02:08:13;7.18;;;3.50;;
62554;SDS011;48610;52.144;8.624;2023-06-14T02:11:14;5.10;;;3.50;;
62554;SDS011;48610;52.144;8.624;2023-06-14T02:14:15;11.82;;;3.97;;
62554;SDS011;48610;52.144;8.624;2023-06-14T02:17:17;9.48;;;3.42;;
62554;SDS011;48610;52.144;8.624;2023-06-14T02:20:17;4.82;;;3.55;;
62554;SDS011;48610;52.144;8.624;2023-06-14T02:23:18;5.88;;;3.50;;
62554;SDS011;48610;52.144;8.624;2023-06-14T02:26:18;6.03;;;3.85;;
62554;SDS011;48610;52.144;8.624;2023-06-14T02:29:19;7.13;;;3.90;;
62554;SDS011;48610;52.144;8.624;2023-06-14T02:32:19;8.98;;;3.60;;
62554;SDS011;48610;52.144;8.624;2023-06-14T02:35:20;5.25;;;3.78;;
62554;SDS011;48610;52.144;8.624;2023-06-14T02:38:22;8.73;;;4.15;;
62554;SDS011;48610;52.144;8.624;2023-06-14T02:41:23;7.05;;;3.70;;
62554;SDS011;48610;52.144;8.624;2023-06-14T02:44:24;6.50;;;3.70;;
62554;SDS011;48610;52.144;8.624;2023-06-14T02:50:30;5.47;;;3.65;;
62554;SDS011;48610;52.144;8.624;2023-06-14T02:53:30;6.90;;;3.42;;
62554;SDS011;48610;52.144;8.624;2023-06-14T02:56:31;8.63;;;3.55;;
62554;SDS011;48610;52.144;8.624;2023-06-14T02:59:31;8.15;;;3.72;;
62554;SDS011;48610;52.144;8.624;2023-06-14T03:02:32;6.53;;;4.10;;
62554;SDS011;48610;52.144;8.624;2023-06-14T03:05:32;7.22;;;3.40;;
62554;SDS011;48610;52.144;8.624;2023-06-14T03:08:33;5.15;;;3.22;;
62554;SDS011;48610;52.144;8.624;2023-06-14T03:11:38;5.57;;;3.70;;
62554;SDS011;48610;52.144;8.624;2023-06-14T03:14:39;6.60;;;3.53;;
62554;SDS011;48610;52.144;8.624;2023-06-14T03:17:39;7.97;;;3.95;;
62554;SDS011;48610;52.144;8.624;2023-06-14T03:20:40;12.68;;;3.92;;
62554;SDS011;48610;52.144;8.624;2023-06-14T03:23:42;8.10;;;4.28;;
62554;SDS011;48610;52.144;8.624;2023-06-14T03:26:43;4.53;;;3.35;;
62554;SDS011;48610;52.144;8.624;2023-06-14T03:29:44;6.60;;;3.05;;
62554;SDS011;48610;52.144;8.624;2023-06-14T03:32:45;7.57;;;3.67;;
62554;SDS011;48610;52.144;8.624;2023-06-14T03:35:45;5.90;;;3.42;;
62554;SDS011;48610;52.144;8.624;2023-06-14T03:38:46;7.10;;;3.33;;
62554;SDS011;48610;52.144;8.624;2023-06-14T03:41:46;7.15;;;3.50;;
62554;SDS011;48610;52.144;8.624;2023-06-14T03:44:47;5.50;;;3.70;;
62554;SDS011;48610;52.144;8.624;2023-06-14T03:47:48;11.38;;;3.65;;
62554;SDS011;48610;52.144;8.624;2023-06-14T03:50:48;6.90;;;3.47;;
62554;SDS011;48610;52.144;8.624;2023-06-14T03:53:49;4.82;;;3.30;;
62554;SDS011;48610;52.144;8.624;2023-06-14T03:56:49;6.28;;;3.60;;
62554;SDS011;48610;52.144;8.624;2023-06-14T03:59:50;5.18;;;3.10;;
62554;SDS011;48610;52.144;8.624;2023-06-14T04:02:51;5.20;;;3.42;;
62554;SDS011;48610;52.144;8.624;2023-06-14T04:05:51;5.30;;;3.30;;
62554;SDS011;48610;52.144;8.624;2023-06-14T04:08:52;4.95;;;3.45;;
62554;SDS011;48610;52.144;8.624;2023-06-14T04:11:53;8.15;;;3.67;;
62554;SDS011;48610;52.144;8.624;2023-06-14T04:14:54;24.92;;;3.70;;
62554;SDS011;48610;52.144;8.624;2023-06-14T04:17:54;5.50;;;3.50;;
62554;SDS011;48610;52.144;8.624;2023-06-14T04:20:57;4.20;;;3.15;;
62554;SDS011;48610;52.144;8.624;2023-06-14T04:23:57;5.70;;;3.65;;
62554;SDS011;48610;52.144;8.624;2023-06-14T04:27:01;8.40;;;3.40;;
62554;SDS011;48610;52.144;8.624;2023-06-14T04:30:02;9.50;;;3.30;;
62554;SDS011;48610;52.144;8.624;2023-06-14T04:33:07;8.02;;;3.85;;
62554;SDS011;48610;52.144;8.624;2023-06-14T04:36:07;4.68;;;3.28;;
62554;SDS011;48610;52.144;8.624;2023-06-14T04:39:18;5.40;;;3.35;;
62554;SDS011;48610;52.144;8.624;2023-06-14T04:42:19;4.82;;;3.28;;
62554;SDS011;48610;52.144;8.624;2023-06-14T04:45:20;5.53;;;3.55;;
62554;SDS011;48610;52.144;8.624;2023-06-14T04:48:22;7.15;;;3.35;;
62554;SDS011;48610;52.144;8.624;2023-06-14T04:51:22;9.30;;;3.58;;
62554;SDS011;48610;52.144;8.624;2023-06-14T04:54:29;10.68;;;3.45;;
62554;SDS011;48610;52.144;8.624;2023-06-14T04:57:31;5.13;;;3.33;;
62554;SDS011;48610;52.144;8.624;2023-06-14T05:00:32;5.97;;;3.70;;
62554;SDS011;48610;52.144;8.624;2023-06-14T05:03:32;7.10;;;3.20;;
62554;SDS011;48610;52.144;8.624;2023-06-14T05:06:34;8.85;;;3.40;;
62554;SDS011;48610;52.144;8.624;2023-06-14T05:09:36;6.65;;;2.97;;
62554;SDS011;48610;52.144;8.624;2023-06-14T05:12:36;4.00;;;3.10;;
62554;SDS011;48610;52.144;8.624;2023-06-14T05:15:37;3.60;;;2.83;;
62554;SDS011;48610;52.144;8.624;2023-06-14T05:18:37;3.65;;;2.70;;
62554;SDS011;48610;52.144;8.624;2023-06-14T05:21:40;4.20;;;3.00;;
62554;SDS011;48610;52.144;8.624;2023-06-14T05:24:40;9.48;;;3.47;;
62554;SDS011;48610;52.144;8.624;2023-06-14T05:27:42;5.10;;;3.17;;
62554;SDS011;48610;52.144;8.624;2023-06-14T05:30:42;4.13;;;3.03;;
62554;SDS011;48610;52.144;8.624;2023-06-14T05:33:43;5.38;;;3.00;;
62554;SDS011;48610;52.144;8.624;2023-06-14T05:36:43;6.45;;;3.17;;
62554;SDS011;48610;52.144;8.624;2023-06-14T05:39:44;6.88;;;3.10;;
62554;SDS011;48610;52.144;8.624;2023-06-14T05:42:44;4.82;;;2.90;;
62554;SDS011;48610;52.144;8.624;2023-06-14T05:45:45;4.80;;;2.75;;
62554;SDS011;48610;52.144;8.624;2023-06-14T05:48:46;7.32;;;2.60;;
62554;SDS011;48610;52.144;8.624;2023-06-14T05:51:46;6.97;;;3.20;;
62554;SDS011;48610;52.144;8.624;2023-06-14T05:54:48;4.20;;;3.13;;
62554;SDS011;48610;52.144;8.624;2023-06-14T05:57:49;4.78;;;2.92;;
62554;SDS011;48610;52.144;8.624;2023-06-14T06:00:49;5.03;;;2.80;;
62554;SDS011;48610;52.144;8.624;2023-06-14T06:03:50;10.02;;;2.83;;
62554;SDS011;48610;52.144;8.624;2023-06-14T06:06:51;8.73;;;3.30;;
62554;SDS011;48610;52.144;8.624;2023-06-14T06:09:52;7.10;;;3.03;;
62554;SDS011;48610;52.144;8.624;2023-06-14T06:12:52;8.32;;;3.28;;
62554;SDS011;48610;52.144;8.624;2023-06-14T06:15:54;4.35;;;2.97;;
62554;SDS011;48610;52.144;8.624;2023-06-14T06:18:56;5.57;;;3.20;;
62554;SDS011;48610;52.144;8.624;2023-06-14T06:21:56;4.80;;;3.20;;
62554;SDS011;48610;52.144;8.624;2023-06-14T06:24:57;5.78;;;2.95;;
62554;SDS011;48610;52.144;8.624;2023-06-14T06:27:57;4.15;;;3.10;;
62554;SDS011;48610;52.144;8.624;2023-06-14T06:30:58;8.15;;;3.03;;
62554;SDS011;48610;52.144;8.624;2023-06-14T06:33:59;6.75;;;3.15;;
62554;SDS011;48610;52.144;8.624;2023-06-14T06:36:59;4.55;;;2.60;;
62554;SDS011;48610;52.144;8.624;2023-06-14T06:40:02;3.08;;;2.67;;
62554;SDS011;48610;52.144;8.624;2023-06-14T06:43:05;4.55;;;2.92;;
62554;SDS011;48610;52.144;8.624;2023-06-14T06:46:06;5.05;;;2.75;;
62554;SDS011;48610;52.144;8.624;2023-06-14T06:49:07;8.48;;;3.03;;
62554;SDS011;48610;52.144;8.624;2023-06-14T06:52:07;4.10;;;2.75;;
62554;SDS011;48610;52.144;8.624;2023-06-14T06:55:08;3.65;;;2.80;;
62554;SDS011;48610;52.144;8.624;2023-06-14T06:58:11;4.70;;;2.83;;
62554;SDS011;48610;52.144;8.624;2023-06-14T07:01:12;4.82;;;3.00;;
62554;SDS011;48610;52.144;8.624;2023-06-14T07:04:15;5.15;;;2.58;;
62554;SDS011;48610;52.144;8.624;2023-06-14T07:07:15;3.88;;;2.80;;
62554;SDS011;48610;52.144;8.624;2023-06-14T07:10:16;3.85;;;2.92;;
62554;SDS011;48610;52.144;8.624;2023-06-14T07:13:17;12.30;;;3.05;;
62554;SDS011;48610;52.144;8.624;2023-06-14T07:16:17;10.60;;;2.70;;
62554;SDS011;48610;52.144;8.624;2023-06-14T07:19:18;6.72;;;2.78;;
62554;SDS011;48610;52.144;8.624;2023-06-14T07:22:19;7.43;;;2.90;;
62554;SDS011;48610;52.144;8.624;2023-06-14T07:25:20;8.07;;;2.63;;
62554;SDS011;48610;52.144;8.624;2023-06-14T07:28:22;9.98;;;2.70;;
62554;SDS011;48610;52.144;8.624;2023-06-14T07:31:24;3.03;;;2.70;;
62554;SDS011;48610;52.144;8.624;2023-06-14T07:34:26;4.63;;;2.72;;
62554;SDS011;48610;52.144;8.624;2023-06-14T07:37:27;3.85;;;2.70;;
62554;SDS011;48610;52.144;8.624;2023-06-14T07:40:27;3.45;;;2.50;;
62554;SDS011;48610;52.144;8.624;2023-06-14T07:43:28;8.00;;;2.75;;
62554;SDS011;48610;52.144;8.624;2023-06-14T07:46:30;7.20;;;2.72;;
62554;SDS011;48610;52.144;8.624;2023-06-14T07:49:31;5.13;;;2.67;;
62554;SDS011;48610;52.144;8.624;2023-06-14T07:52:31;8.50;;;3.03;;
62554;SDS011;48610;52.144;8.624;2023-06-14T07:55:32;3.75;;;2.75;;
62554;SDS011;48610;52.144;8.624;2023-06-14T07:58:36;7.38;;;2.70;;
62554;SDS011;48610;52.144;8.624;2023-06-14T08:01:37;4.22;;;2.83;;
62554;SDS011;48610;52.144;8.624;2023-06-14T08:04:38;4.10;;;2.60;;
62554;SDS011;48610;52.144;8.624;2023-06-14T08:07:39;6.10;;;3.00;;
62554;SDS011;48610;52.144;8.624;2023-06-14T08:10:40;4.72;;;2.90;;
62554;SDS011;48610;52.144;8.624;2023-06-14T08:13:41;4.10;;;2.60;;
62554;SDS011;48610;52.144;8.624;2023-06-14T08:16:41;3.28;;;2.90;;
62554;SDS011;48610;52.144;8.624;2023-06-14T08:19:42;4.57;;;2.80;;
62554;SDS011;48610;52.144;8.624;2023-06-14T08:22:42;5.80;;;3.08;;
62554;SDS011;48610;52.144;8.624;2023-06-14T08:25:43;5.82;;;2.78;;
62554;SDS011;48610;52.144;8.624;2023-06-14T08:28:44;6.88;;;2.90;;
62554;SDS011;48610;52.144;8.624;2023-06-14T08:31:44;8.82;;;2.75;;
62554;SDS011;48610;52.144;8.624;2023-06-14T08:34:45;4.00;;;2.92;;
62554;SDS011;48610;52.144;8.624;2023-06-14T08:37:46;6.18;;;2.67;;
62554;SDS011;48610;52.144;8.624;2023-06-14T08:40:48;7.63;;;2.92;;
62554;SDS011;48610;52.144;8.624;2023-06-14T08:43:52;2.90;;;2.58;;
62554;SDS011;48610;52.144;8.624;2023-06-14T08:46:52;4.80;;;2.70;;
62554;SDS011;48610;52.144;8.624;2023-06-14T08:49:57;4.00;;;2.77;;
62554;SDS011;48610;52.144;8.624;2023-06-14T08:52:59;4.50;;;2.83;;
62554;SDS011;48610;52.144;8.624;2023-06-14T08:56:02;6.60;;;2.90;;
62554;SDS011;48610;52.144;8.624;2023-06-14T08:59:04;3.50;;;2.90;;
62554;SDS011;48610;52.144;8.624;2023-06-14T09:02:06;5.80;;;2.83;;
62554;SDS011;48610;52.144;8.624;2023-06-14T09:05:07;3.13;;;2.53;;
62554;SDS011;48610;52.144;8.624;2023-06-14T09:08:08;3.63;;;2.78;;
62554;SDS011;48610;52.144;8.624;2023-06-14T09:11:11;6.93;;;3.20;;
62554;SDS011;48610;52.144;8.624;2023-06-14T09:14:13;3.22;;;2.55;;
62554;SDS011;48610;52.144;8.624;2023-06-14T09:17:13;7.93;;;2.80;;
62554;SDS011;48610;52.144;8.624;2023-06-14T09:20:15;7.93;;;2.97;;
62554;SDS011;48610;52.144;8.624;2023-06-14T09:23:22;9.88;;;2.67;;
62554;SDS011;48610;52.144;8.624;2023-06-14T09:26:22;3.67;;;2.72;;
62554;SDS011;48610;52.144;8.624;2023-06-14T09:29:23;5.75;;;2.90;;
62554;SDS011;48610;52.144;8.624;2023-06-14T09:32:24;3.20;;;2.90;;
62554;SDS011;48610;52.144;8.624;2023-06-14T09:35:25;2.63;;;2.42;;
62554;SDS011;48610;52.144;8.624;2023-06-14T09:38:25;8.23;;;3.03;;
62554;SDS011;48610;52.144;8.624;2023-06-14T09:44:34;5.20;;;2.80;;
62554;SDS011;48610;52.144;8.624;2023-06-14T09:47:35;4.50;;;2.70;;
62554;SDS011;48610;52.144;8.624;2023-06-14T09:50:35;6.78;;;2.83;;
62554;SDS011;48610;52.144;8.624;2023-06-14T09:53:36;3.10;;;2.60;;
62554;SDS011;48610;52.144;8.624;2023-06-14T09:56:37;9.80;;;2.70;;
62554;SDS011;48610;52.144;8.624;2023-06-14T09:59:44;3.22;;;2.67;;
62554;SDS011;48610;52.144;8.624;2023-06-14T10:02:47;8.52;;;2.90;;
62554;SDS011;48610;52.144;8.624;2023-06-14T10:05:54;5.88;;;2.90;;
62554;SDS011;48610;52.144;8.624;2023-06-14T10:09:01;4.20;;;2.67;;
62554;SDS011;48610;52.144;8.624;2023-06-14T10:12:03;5.97;;;2.92;;
62554;SDS011;48610;52.144;8.624;2023-06-14T10:15:05;4.65;;;2.90;;
62554;SDS011;48610;52.144;8.624;2023-06-14T10:18:11;6.47;;;2.53;;
62554;SDS011;48610;52.144;8.624;2023-06-14T10:21:27;5.03;;;3.10;;
62554;SDS011;48610;52.144;8.624;2023-06-14T10:24:34;5.63;;;2.90;;
62554;SDS011;48610;52.144;8.624;2023-06-14T10:27:44;10.85;;;2.97;;
62554;SDS011;48610;52.144;8.624;2023-06-14T10:34:05;3.13;;;2.70;;
62554;SDS011;48610;52.144;8.624;2023-06-14T10:37:06;3.92;;;3.05;;
62554;SDS011;48610;52.144;8.624;2023-06-14T10:40:16;5.65;;;2.85;;
62554;SDS011;48610;52.144;8.624;2023-06-14T10:43:30;5.15;;;2.85;;
62554;SDS011;48610;52.144;8.624;2023-06-14T10:46:31;6.53;;;2.83;;
62554;SDS011;48610;52.144;8.624;2023-06-14T10:49:41;5.95;;;2.80;;
62554;SDS011;48610;52.144;8.624;2023-06-14T10:52:48;8.27;;;3.30;;
62554;SDS011;48610;52.144;8.624;2023-06-14T10:55:49;4.07;;;2.75;;
62554;SDS011;48610;52.144;8.624;2023-06-14T10:58:51;6.10;;;3.70;;
62554;SDS011;48610;52.144;8.624;2023-06-14T11:05:41;13.57;;;3.13;;
62554;SDS011;48610;52.144;8.624;2023-06-14T11:12:31;3.83;;;2.80;;
62554;SDS011;48610;52.144;8.624;2023-06-14T11:15:35;5.60;;;2.80;;
62554;SDS011;48610;52.144;8.624;2023-06-14T11:18:37;4.65;;;2.72;;
62554;SDS011;48610;52.144;8.624;2023-06-14T11:21:39;4.57;;;2.60;;
62554;SDS011;48610;52.144;8.624;2023-06-14T11:24:40;10.80;;;2.85;;
62554;SDS011;48610;52.144;8.624;2023-06-14T11:27:42;4.07;;;3.00;;
62554;SDS011;48610;52.144;8.624;2023-06-14T11:30:43;2.80;;;2.60;;
62554;SDS011;48610;52.144;8.624;2023-06-14T11:33:48;4.00;;;2.58;;
62554;SDS011;48610;52.144;8.624;2023-06-14T11:36:50;2.58;;;2.38;;
62554;SDS011;48610;52.144;8.624;2023-06-14T11:39:51;4.22;;;2.70;;
62554;SDS011;48610;52.144;8.624;2023-06-14T11:43:01;8.07;;;2.70;;
62554;SDS011;48610;52.144;8.624;2023-06-14T11:46:02;3.03;;;2.67;;
62554;SDS011;48610;52.144;8.624;2023-06-14T11:49:02;5.55;;;2.90;;
62554;SDS011;48610;52.144;8.624;2023-06-14T11:52:04;5.55;;;3.13;;
62554;SDS011;48610;52.144;8.624;2023-06-14T11:55:05;3.85;;;2.60;;
62554;SDS011;48610;52.144;8.624;2023-06-14T11:58:06;3.47;;;2.60;;
62554;SDS011;48610;52.144;8.624;2023-06-14T12:01:07;3.10;;;2.30;;
62554;SDS011;48610;52.144;8.624;2023-06-14T12:04:07;7.00;;;2.80;;
62554;SDS011;48610;52.144;8.624;2023-06-14T12:07:08;3.90;;;2.40;;
62554;SDS011;48610;52.144;8.624;2023-06-14T12:10:12;3.42;;;2.70;;
62554;SDS011;48610;52.144;8.624;2023-06-14T12:13:16;2.92;;;2.67;;
62554;SDS011;48610;52.144;8.624;2023-06-14T12:16:17;4.20;;;2.50;;
62554;SDS011;48610;52.144;8.624;2023-06-14T12:19:18;8.38;;;3.03;;
62554;SDS011;48610;52.144;8.624;2023-06-14T12:22:18;4.95;;;2.70;;
62554;SDS011;48610;52.144;8.624;2023-06-14T12:25:28;4.57;;;2.75;;
62554;SDS011;48610;52.144;8.624;2023-06-14T12:28:33;8.03;;;2.60;;
62554;SDS011;48610;52.144;8.624;2023-06-14T12:31:35;7.00;;;2.70;;
62554;SDS011;48610;52.144;8.624;2023-06-14T12:34:35;3.55;;;2.60;;
62554;SDS011;48610;52.144;8.624;2023-06-14T12:37:36;3.17;;;2.47;;
62554;SDS011;48610;52.144;8.624;2023-06-14T12:40:37;3.38;;;2.50;;
62554;SDS011;48610;52.144;8.624;2023-06-14T12:43:39;4.05;;;2.58;;
62554;SDS011;48610;52.144;8.624;2023-06-14T12:46:40;6.63;;;2.55;;
62554;SDS011;48610;52.144;8.624;2023-06-14T12:49:42;4.00;;;2.50;;
62554;SDS011;48610;52.144;8.624;2023-06-14T12:52:43;3.50;;;2.70;;
62554;SDS011;48610;52.144;8.624;2023-06-14T12:55:43;5.00;;;2.97;;
62554;SDS011;48610;52.144;8.624;2023-06-14T12:58:44;3.03;;;2.60;;
62554;SDS011;48610;52.144;8.624;2023-06-14T13:01:45;9.30;;;2.75;;
62554;SDS011;48610;52.144;8.624;2023-06-14T13:04:47;2.90;;;2.60;;
62554;SDS011;48610;52.144;8.624;2023-06-14T13:07:48;3.60;;;2.80;;
62554;SDS011;48610;52.144;8.624;2023-06-14T13:10:49;4.50;;;2.80;;
62554;SDS011;48610;52.144;8.624;2023-06-14T13:13:49;4.70;;;2.83;;
62554;SDS011;48610;52.144;8.624;2023-06-14T13:16:50;3.05;;;2.65;;
62554;SDS011;48610;52.144;8.624;2023-06-14T13:19:50;9.80;;;2.75;;
62554;SDS011;48610;52.144;8.624;2023-06-14T13:22:51;4.90;;;2.88;;
62554;SDS011;48610;52.144;8.624;2023-06-14T13:25:51;4.05;;;2.90;;
62554;SDS011;48610;52.144;8.624;2023-06-14T13:28:52;7.63;;;2.85;;
62554;SDS011;48610;52.144;8.624;2023-06-14T13:31:53;7.70;;;2.90;;
62554;SDS011;48610;52.144;8.624;2023-06-14T13:34:54;3.85;;;2.75;;
62554;SDS011;48610;52.144;8.624;2023-06-14T13:37:54;8.35;;;2.80;;
62554;SDS011;48610;52.144;8.624;2023-06-14T13:40:55;5.70;;;2.80;;
62554;SDS011;48610;52.144;8.624;2023-06-14T13:43:55;3.20;;;2.65;;
62554;SDS011;48610;52.144;8.624;2023-06-14T13:46:56;5.38;;;2.67;;
62554;SDS011;48610;52.144;8.624;2023-06-14T13:49:56;4.22;;;2.53;;
62554;SDS011;48610;52.144;8.624;2023-06-14T13:52:58;4.50;;;3.30;;
62554;SDS011;48610;52.144;8.624;2023-06-14T13:55:58;4.25;;;2.80;;
62554;SDS011;48610;52.144;8.624;2023-06-14T13:58:59;6.43;;;2.97;;
62554;SDS011;48610;52.144;8.624;2023-06-14T14:02:00;5.28;;;3.00;;
62554;SDS011;48610;52.144;8.624;2023-06-14T14:05:00;11.23;;;3.20;;
62554;SDS011;48610;52.144;8.624;2023-06-14T14:08:01;3.47;;;2.88;;
62554;SDS011;48610;52.144;8.624;2023-06-14T14:11:02;4.22;;;3.17;;
62554;SDS011;48610;52.144;8.624;2023-06-14T14:14:02;6.47;;;3.28;;
62554;SDS011;48610;52.144;8.624;2023-06-14T14:17:03;4.88;;;3.05;;
62554;SDS011;48610;52.144;8.624;2023-06-14T14:20:04;5.35;;;3.40;;
62554;SDS011;48610;52.144;8.624;2023-06-14T14:23:06;3.38;;;2.97;;
62554;SDS011;48610;52.144;8.624;2023-06-14T14:26:06;8.27;;;3.20;;
62554;SDS011;48610;52.144;8.624;2023-06-14T14:29:07;3.53;;;2.97;;
62554;SDS011;48610;52.144;8.624;2023-06-14T14:32:10;5.03;;;3.00;;
62554;SDS011;48610;52.144;8.624;2023-06-14T14:35:13;4.38;;;3.28;;
62554;SDS011;48610;52.144;8.624;2023-06-14T14:38:14;4.10;;;3.00;;
62554;SDS011;48610;52.144;8.624;2023-06-14T14:41:16;5.88;;;3.50;;
62554;SDS011;48610;52.144;8.624;2023-06-14T14:44:16;6.07;;;3.17;;
62554;SDS011;48610;52.144;8.624;2023-06-14T14:47:18;4.15;;;3.28;;
62554;SDS011;48610;52.144;8.624;2023-06-14T14:50:18;4.20;;;3.25;;
62554;SDS011;48610;52.144;8.624;2023-06-14T14:53:19;3.83;;;3.00;;
62554;SDS011;48610;52.144;8.624;2023-06-14T14:56:21;3.70;;;3.10;;
62554;SDS011;48610;52.144;8.624;2023-06-14T14:59:22;7.38;;;3.38;;
62554;SDS011;48610;52.144;8.624;2023-06-14T15:02:22;6.53;;;3.38;;
62554;SDS011;48610;52.144;8.624;2023-06-14T15:05:24;8.18;;;3.65;;
62554;SDS011;48610;52.144;8.624;2023-06-14T15:08:24;4.53;;;3.30;;
62554;SDS011;48610;52.144;8.624;2023-06-14T15:11:25;10.57;;;3.53;;
62554;SDS011;48610;52.144;8.624;2023-06-14T15:14:25;9.32;;;3.72;;
62554;SDS011;48610;52.144;8.624;2023-06-14T15:17:26;5.75;;;3.40;;
62554;SDS011;48610;52.144;8.624;2023-06-14T15:20:26;5.35;;;3.10;;
62554;SDS011;48610;52.144;8.624;2023-06-14T15:23:27;4.82;;;3.50;;
62554;SDS011;48610;52.144;8.624;2023-06-14T15:26:27;4.40;;;3.30;;
62554;SDS011;48610;52.144;8.624;2023-06-14T15:29:29;5.50;;;3.40;;
62554;SDS011;48610;52.144;8.624;2023-06-14T15:32:29;7.30;;;3.53;;
62554;SDS011;48610;52.144;8.624;2023-06-14T15:35:30;8.48;;;3.95;;
62554;SDS011;48610;52.144;8.624;2023-06-14T15:38:30;12.30;;;3.20;;
62554;SDS011;48610;52.144;8.624;2023-06-14T15:41:32;8.27;;;3.47;;
62554;SDS011;48610;52.144;8.624;2023-06-14T15:44:33;7.88;;;3.50;;
62554;SDS011;48610;52.144;8.624;2023-06-14T15:47:33;7.78;;;3.30;;
62554;SDS011;48610;52.144;8.624;2023-06-14T15:50:34;6.75;;;3.50;;
62554;SDS011;48610;52.144;8.624;2023-06-14T15:53:35;9.13;;;3.80;;
62554;SDS011;48610;52.144;8.624;2023-06-14T15:56:36;4.90;;;3.30;;
62554;SDS011;48610;52.144;8.624;2023-06-14T15:59:36;7.13;;;3.42;;
62554;SDS011;48610;52.144;8.624;2023-06-14T16:02:37;13.50;;;3.78;;
62554;SDS011;48610;52.144;8.624;2023-06-14T16:05:38;6.00;;;3.20;;
62554;SDS011;48610;52.144;8.624;2023-06-14T16:08:38;6.95;;;3.45;;
62554;SDS011;48610;52.144;8.624;2023-06-14T16:11:39;8.27;;;3.30;;
62554;SDS011;48610;52.144;8.624;2023-06-14T16:14:40;9.02;;;3.17;;
62554;SDS011;48610;52.144;8.624;2023-06-14T16:17:40;4.80;;;3.40;;
62554;SDS011;48610;52.144;8.624;2023-06-14T16:20:42;8.18;;;3.47;;
62554;SDS011;48610;52.144;8.624;2023-06-14T16:23:43;8.95;;;3.70;;
62554;SDS011;48610;52.144;8.624;2023-06-14T16:26:43;8.23;;;3.35;;
62554;SDS011;48610;52.144;8.624;2023-06-14T16:29:44;7.03;;;3.72;;
62554;SDS011;48610;52.144;8.624;2023-06-14T16:32:44;6.72;;;3.40;;
62554;SDS011;48610;52.144;8.624;2023-06-14T16:35:45;4.40;;;3.58;;
62554;SDS011;48610;52.144;8.624;2023-06-14T16:38:45;3.63;;;3.17;;
62554;SDS011;48610;52.144;8.624;2023-06-14T16:41:46;8.52;;;3.58;;
62554;SDS011;48610;52.144;8.624;2023-06-14T16:44:46;7.63;;;3.75;;
62554;SDS011;48610;52.144;8.624;2023-06-14T16:47:47;5.57;;;3.38;;
62554;SDS011;48610;52.144;8.624;2023-06-14T16:50:47;6.60;;;4.07;;
62554;SDS011;48610;52.144;8.624;2023-06-14T16:53:48;7.15;;;3.90;;
62554;SDS011;48610;52.144;8.624;2023-06-14T16:56:49;5.90;;;3.55;;
62554;SDS011;48610;52.144;8.624;2023-06-14T16:59:49;4.97;;;3.55;;
62554;SDS011;48610;52.144;8.624;2023-06-14T17:02:50;6.10;;;3.65;;
62554;SDS011;48610;52.144;8.624;2023-06-14T17:05:56;14.45;;;4.40;;
62554;SDS011;48610;52.144;8.624;2023-06-14T17:08:57;4.90;;;3.67;;
62554;SDS011;48610;52.144;8.624;2023-06-14T17:11:58;15.82;;;3.70;;
62554;SDS011;48610;52.144;8.624;2023-06-14T17:14:58;8.32;;;3.80;;
62554;SDS011;48610;52.144;8.624;2023-06-14T17:17:59;5.15;;;3.58;;
62554;SDS011;48610;52.144;8.624;2023-06-14T17:20:59;5.10;;;3.47;;
62554;SDS011;48610;52.144;8.624;2023-06-14T17:24:00;11.50;;;3.70;;
62554;SDS011;48610;52.144;8.624;2023-06-14T17:27:01;6.97;;;3.67;;
62554;SDS011;48610;52.144;8.624;2023-06-14T17:30:02;9.63;;;3.53;;
62554;SDS011;48610;52.144;8.624;2023-06-14T17:33:07;9.15;;;3.60;;
62554;SDS011;48610;52.144;8.624;2023-06-14T17:36:09;5.95;;;3.83;;
62554;SDS011;48610;52.144;8.624;2023-06-14T17:39:09;6.40;;;3.45;;
62554;SDS011;48610;52.144;8.624;2023-06-14T17:42:10;8.50;;;3.70;;
62554;SDS011;48610;52.144;8.624;2023-06-14T17:45:11;6.63;;;3.50;;
62554;SDS011;48610;52.144;8.624;2023-06-14T17:48:11;6.68;;;4.32;;
62554;SDS011;48610;52.144;8.624;2023-06-14T17:51:12;7.70;;;3.72;;
62554;SDS011;48610;52.144;8.624;2023-06-14T17:54:15;7.22;;;3.67;;
62554;SDS011;48610;52.144;8.624;2023-06-14T17:57:15;15.27;;;4.07;;
62554;SDS011;48610;52.144;8.624;2023-06-14T18:00:16;9.13;;;3.88;;
62554;SDS011;48610;52.144;8.624;2023-06-14T18:03:17;5.78;;;3.50;;
62554;SDS011;48610;52.144;8.624;2023-06-14T18:06:18;9.48;;;3.88;;
62554;SDS011;48610;52.144;8.624;2023-06-14T18:09:19;9.82;;;4.00;;
62554;SDS011;48610;52.144;8.624;2023-06-14T18:12:20;8.82;;;4.10;;
62554;SDS011;48610;52.144;8.624;2023-06-14T18:15:20;6.20;;;3.90;;
62554;SDS011;48610;52.144;8.624;2023-06-14T18:18:21;13.43;;;4.32;;
62554;SDS011;48610;52.144;8.624;2023-06-14T18:21:21;7.00;;;3.60;;
62554;SDS011;48610;52.144;8.624;2023-06-14T18:24:22;4.80;;;3.53;;
62554;SDS011;48610;52.144;8.624;2023-06-14T18:27:23;8.05;;;3.85;;